Terminal Aerodrome Forecast
Issued by NWS

Home | Current Version | Previous Version | Text Only | Print | Product List | Glossary On
Versions: 1 2 3 4 5 6 7 8 9 10 11 12
000
FTUS42 KMLB 262320
TAFISM
TAF
KISM 262320Z 2700/2724 09014KT P6SM SCT250
     FM270400 08003KT P6SM SKC
     FM271400 09010KT P6SM SCT035
     FM271900 09015G23KT P6SM SCT040 BKN250
      AMD NOT SKED 2703/2712=

USA.gov is the U.S. government's official web portal to all federal, state and local government web resources and services.